createdAt,value
2023-03-02T00:02:19.488Z,-11155.44
2023-03-02T00:05:27.016Z,-11153.19
2023-03-02T00:08:35.605Z,-11153.47
2023-03-02T00:11:42.043Z,-11144.63
2023-03-02T00:14:48.392Z,-11146.56
2023-03-02T00:17:54.536Z,-11147.56
2023-03-02T00:21:01.937Z,-11147.28
2023-03-02T00:24:09.341Z,-11143.62
2023-03-02T00:27:15.906Z,-11144.75
2023-03-02T00:30:22.564Z,-11143.50
2023-03-02T00:33:28.942Z,-11148.25
2023-03-02T00:36:36.617Z,-11149.81
2023-03-02T00:39:43.291Z,-11154.59
2023-03-02T00:42:49.648Z,-11148.97
2023-03-02T00:45:55.974Z,-11144.63
2023-03-02T00:49:02.204Z,-11140.41
2023-03-02T00:52:10.024Z,-11146.56
2023-03-02T00:55:16.520Z,-11145.88
2023-03-02T00:58:23.593Z,-11145.03
2023-03-02T01:01:29.962Z,-11140.25
2023-03-02T01:04:38.980Z,-11140.25
2023-03-02T01:07:47.042Z,-11135.63
2023-03-02T01:10:54.389Z,-11135.19
2023-03-02T01:14:00.917Z,-11140.13
2023-03-02T01:17:08.586Z,-11131.25
2023-03-02T01:20:15.276Z,-11130.41
2023-03-02T01:23:23.015Z,-11132.38
2023-03-02T01:26:29.740Z,-11132.53
2023-03-02T01:29:36.427Z,-11131.13
2023-03-02T01:32:42.576Z,-11128.75
2023-03-02T01:35:49.061Z,-11129.59
2023-03-02T01:38:56.511Z,-11137.16
2023-03-02T01:42:02.844Z,-11129.59
2023-03-02T01:45:43.336Z,-11133.66
2023-03-02T01:48:51.762Z,-11142.38
2023-03-02T01:51:57.802Z,-11138.84
2023-03-02T01:55:09.446Z,-11131.81
2023-03-02T01:58:17.919Z,-11135.19
2023-03-02T02:01:24.519Z,-11135.47
2023-03-02T02:04:32.358Z,-11134.34
2023-03-02T02:07:39.115Z,-11123.97
2023-03-02T02:10:46.647Z,-11132.66
2023-03-02T02:13:56.981Z,-11127.63
2023-03-02T02:17:03.719Z,-11128.19
2023-03-02T02:20:24.172Z,-11138.44
2023-03-02T02:23:38.722Z,-11147.97
2023-03-02T02:26:50.026Z,-11139.00
2023-03-02T02:29:58.454Z,-11144.19
2023-03-02T02:33:05.942Z,-11132.53
2023-03-02T02:36:18.459Z,-11143.06
2023-03-02T02:39:29.779Z,-11142.78
2023-03-02T02:42:42.765Z,-11143.06
2023-03-02T02:45:51.402Z,-11141.66
2023-03-02T02:48:57.676Z,-11142.09
2023-03-02T02:52:05.366Z,-11144.19
2023-03-02T02:55:17.235Z,-11142.22
2023-03-02T02:58:32.713Z,-11142.66
2023-03-02T03:01:39.446Z,-11138.44
2023-03-02T03:04:46.324Z,-11140.97
2023-03-02T03:07:53.355Z,-11142.50
2023-03-02T03:11:00.520Z,-11144.47
2023-03-02T03:14:11.369Z,-11144.47
2023-03-02T03:17:17.891Z,-11145.03
2023-03-02T03:20:25.466Z,-11143.62
2023-03-02T03:23:32.059Z,-11139.84
2023-03-02T03:26:38.466Z,-11142.66
2023-03-02T03:29:49.056Z,-11130.00
2023-03-02T03:32:55.506Z,-11137.44
2023-03-02T03:36:02.005Z,-11136.03
2023-03-02T03:39:08.405Z,-11140.41
2023-03-02T03:42:14.679Z,-11139.97
2023-03-02T03:45:22.607Z,-11138.00
2023-03-02T03:48:29.247Z,-11136.88
2023-03-02T03:51:35.781Z,-11135.75
2023-03-02T03:54:42.504Z,-11137.72
2023-03-02T03:57:48.640Z,-11132.53
2023-03-02T04:00:56.185Z,-11135.19
2023-03-02T04:04:02.763Z,-11129.31
2023-03-02T04:07:09.272Z,-11134.06
2023-03-02T04:10:15.261Z,-11134.34
2023-03-02T04:13:21.514Z,-11137.31
2023-03-02T04:16:30.021Z,-11136.59
2023-03-02T04:19:37.569Z,-11137.72
2023-03-02T04:22:45.780Z,-11136.88
2023-03-02T04:25:52.066Z,-11136.88
2023-03-02T04:28:58.383Z,-11133.78
2023-03-02T04:32:06.549Z,-11135.47
2023-03-02T04:35:13.042Z,-11136.19
2023-03-02T04:38:19.413Z,-11131.53
2023-03-02T04:41:25.841Z,-11121.72
2023-03-02T04:44:32.149Z,-11121.84
2023-03-02T04:47:40.014Z,-11117.66
2023-03-02T04:50:47.510Z,-11121.56
2023-03-02T04:53:56.066Z,-11123.69
2023-03-02T04:57:02.745Z,-11130.00
2023-03-02T05:00:11.240Z,-11131.97
2023-03-02T05:03:19.190Z,-11121.16
2023-03-02T05:06:25.794Z,-11123.97
2023-03-02T05:09:32.231Z,-11132.53
2023-03-02T05:12:54.584Z,-11136.03
2023-03-02T05:16:01.608Z,-11124.66
2023-03-02T05:19:11.618Z,-11129.16
2023-03-02T05:22:18.368Z,-11130.69
2023-03-02T05:25:24.769Z,-11131.13
2023-03-02T05:28:31.538Z,-11133.50
2023-03-02T05:31:40.808Z,-11108.22
2023-03-02T05:34:49.014Z,-11112.16
2023-03-02T05:37:55.420Z,-11123.25
2023-03-02T05:41:01.900Z,-11122.97
2023-03-02T05:44:12.149Z,-11127.34
2023-03-02T05:47:18.650Z,-11121.72
2023-03-02T05:50:26.669Z,-11132.38
2023-03-02T05:53:33.287Z,-11124.81
2023-03-02T05:56:39.912Z,-11131.13
2023-03-02T05:59:48.964Z,-11131.13
2023-03-02T06:02:55.623Z,-11127.91
2023-03-02T06:06:03.563Z,-11134.34
2023-03-02T06:09:09.882Z,-11137.44
2023-03-02T06:12:16.126Z,-11140.41
2023-03-02T06:15:22.136Z,-11136.75
2023-03-02T06:18:28.355Z,-11140.81
2023-03-02T06:21:36.155Z,-11143.34
2023-03-02T06:24:43.105Z,-11148.13
2023-03-02T06:27:51.730Z,-11149.25
2023-03-02T06:31:00.550Z,-11145.59
2023-03-02T06:34:07.088Z,-11142.50
2023-03-02T06:37:14.844Z,-11144.91
2023-03-02T06:40:21.788Z,-11139.97
2023-03-02T06:43:28.484Z,-11144.75
2023-03-02T06:46:35.111Z,-11143.91
2023-03-02T06:49:41.770Z,-11147.56
2023-03-02T06:52:49.520Z,-11149.53
2023-03-02T06:55:55.975Z,-11160.63
2023-03-02T06:59:02.258Z,-11159.22
2023-03-02T07:02:08.635Z,-11144.75
2023-03-02T07:05:15.131Z,-11157.41
2023-03-02T07:08:23.171Z,-11156.13
2023-03-02T07:11:29.468Z,-11167.81
2023-03-02T07:14:36.756Z,-11174.81
2023-03-02T07:17:44.734Z,-11168.94
2023-03-02T07:20:51.006Z,-11171.88
2023-03-02T07:23:58.756Z,-11172.88
2023-03-02T07:27:05.428Z,-11178.34
2023-03-02T07:30:14.978Z,-11160.22
2023-03-02T07:33:21.474Z,-11176.50
2023-03-02T07:36:27.573Z,-11160.78
2023-03-02T07:39:35.315Z,-11187.19
2023-03-02T07:42:41.916Z,-11172.44
2023-03-02T07:45:48.223Z,-11181.44
2023-03-02T07:48:54.586Z,-11168.94
2023-03-02T07:52:01.119Z,-11184.09
2023-03-02T07:55:10.056Z,-11175.53
2023-03-02T07:58:16.651Z,-11181.00
2023-03-02T08:01:23.176Z,-11190.28
2023-03-02T08:04:29.536Z,-11182.41
2023-03-02T08:07:36.272Z,-11169.06
2023-03-02T08:10:44.228Z,-11182.56
2023-03-02T08:13:50.496Z,-11188.88
2023-03-02T08:16:56.926Z,-11187.19
2023-03-02T08:20:04.046Z,-11184.94
2023-03-02T08:23:10.617Z,-11181.56
2023-03-02T08:26:19.751Z,-11177.78
2023-03-02T08:29:26.756Z,-11190.44
2023-03-02T08:32:34.334Z,-11189.16
2023-03-02T08:35:40.710Z,-11183.81
2023-03-02T08:38:48.472Z,-11184.25
2023-03-02T08:41:56.597Z,-11169.34
2023-03-02T08:45:03.097Z,-11184.94
2023-03-02T08:48:09.369Z,-11180.59
2023-03-02T08:51:18.345Z,-11185.50
2023-03-02T08:54:25.165Z,-11191.28
2023-03-02T08:57:32.733Z,-11187.06
2023-03-02T09:00:39.100Z,-11189.44
2023-03-02T09:03:46.317Z,-11182.13
2023-03-02T09:06:52.603Z,-11192.13
2023-03-02T09:09:58.768Z,-11193.09
2023-03-02T09:13:08.570Z,-11195.63
2023-03-02T09:16:15.865Z,-11199.56
2023-03-02T09:19:22.767Z,-11194.78
2023-03-02T09:22:30.311Z,-11195.22
2023-03-02T09:25:36.501Z,-11196.06
2023-03-02T09:28:44.003Z,-11200.84
2023-03-02T09:31:50.086Z,-11194.94
2023-03-02T09:34:56.229Z,-11186.06
2023-03-02T09:38:02.383Z,-11191.13
2023-03-02T09:41:36.083Z,-11190.84
2023-03-02T09:45:17.985Z,-11208.84
2023-03-02T09:48:37.555Z,-11177.91
2023-03-02T09:51:48.497Z,-11176.50
2023-03-02T09:54:55.154Z,-11172.44
2023-03-02T09:58:04.507Z,-11171.47
2023-03-02T10:01:16.618Z,-11181.84
2023-03-02T10:04:30.472Z,-11169.50
2023-03-02T10:07:40.220Z,-11192.81
2023-03-02T10:10:49.941Z,-11180.31
2023-03-02T10:14:03.616Z,-11186.06
2023-03-02T10:17:29.202Z,-11186.22
2023-03-02T10:20:44.156Z,-11203.78
2023-03-02T10:23:57.428Z,-11213.91
2023-03-02T10:27:20.740Z,-11194.50
2023-03-02T10:30:31.933Z,-11196.06
2023-03-02T10:33:42.068Z,-11206.03
2023-03-02T10:36:49.678Z,-11210.81
2023-03-02T10:39:56.398Z,-11209.28
2023-03-02T10:43:04.329Z,-11207.31
2023-03-02T10:46:12.407Z,-11204.91
2023-03-02T10:49:27.024Z,-11209.28
2023-03-02T10:52:35.881Z,-11206.03
2023-03-02T10:55:47.031Z,-11198.16
2023-03-02T10:58:55.614Z,-11191.97
2023-03-02T11:02:04.282Z,-11209.69
2023-03-02T11:05:28.588Z,-11210.25
2023-03-02T11:08:36.205Z,-11207.72
2023-03-02T11:11:52.909Z,-11206.59
2023-03-02T11:15:14.759Z,-11229.25
2023-03-02T11:18:27.065Z,-11226.28
2023-03-02T11:21:37.585Z,-11227.97
2023-03-02T11:24:51.580Z,-11239.78
2023-03-02T11:28:03.749Z,-11232.34
2023-03-02T11:31:17.790Z,-11230.38
2023-03-02T11:34:30.109Z,-11229.37
2023-03-02T11:37:41.288Z,-11219.25
2023-03-02T11:40:55.063Z,-11215.75
2023-03-02T11:44:03.323Z,-11220.94
2023-03-02T11:47:13.432Z,-11222.06
2023-03-02T11:50:19.614Z,-11227.13
2023-03-02T11:53:31.854Z,-11220.09
2023-03-02T11:56:41.644Z,-11222.91
2023-03-02T11:59:50.476Z,-11224.19
2023-03-02T12:03:01.682Z,-11227.13
2023-03-02T12:06:25.524Z,-11228.69
2023-03-02T12:09:37.999Z,-11231.91
2023-03-02T12:12:59.580Z,-11221.38
2023-03-02T12:16:19.426Z,-11223.75
2023-03-02T12:19:28.866Z,-11226.72
2023-03-02T12:22:35.845Z,-11222.91
2023-03-02T12:25:51.466Z,-11226.84
2023-03-02T12:29:03.316Z,-11226.84
2023-03-02T12:32:23.010Z,-11227.41
2023-03-02T12:35:31.734Z,-11230.78
2023-03-02T12:38:39.917Z,-11230.22
2023-03-02T12:42:07.853Z,-11229.53
2023-03-02T12:45:25.855Z,-11229.09
2023-03-02T12:48:40.441Z,-11234.19
2023-03-02T12:51:54.175Z,-11231.06
2023-03-02T12:55:07.676Z,-11228.53
2023-03-02T12:58:19.664Z,-11226.28
2023-03-02T13:01:29.829Z,-11232.47
2023-03-02T13:04:36.310Z,-11223.91
2023-03-02T13:07:47.653Z,-11223.19
2023-03-02T13:10:55.800Z,-11230.66
2023-03-02T13:14:03.855Z,-11233.47
2023-03-02T13:17:24.022Z,-11232.75
2023-03-02T13:20:31.353Z,-11232.34
2023-03-02T13:23:37.548Z,-11234.59
2023-03-02T13:26:43.743Z,-11234.75
2023-03-02T13:29:52.233Z,-11227.56
2023-03-02T13:33:03.386Z,-11233.03
2023-03-02T13:36:10.140Z,-11234.03
2023-03-02T13:39:21.299Z,-11230.09
2023-03-02T13:42:30.069Z,-11236.44
2023-03-02T13:45:36.639Z,-11231.34
2023-03-02T13:49:07.456Z,-11229.37
2023-03-02T13:52:22.526Z,-11227.69
2023-03-02T13:55:29.667Z,-11225.31
2023-03-02T13:58:39.599Z,-11235.03
2023-03-02T14:01:46.375Z,-11243.03
2023-03-02T14:04:54.474Z,-11239.66
2023-03-02T14:08:01.090Z,-11233.88
2023-03-02T14:11:08.337Z,-11228.41
2023-03-02T14:14:17.951Z,-11228.69
2023-03-02T14:17:26.651Z,-11228.53
2023-03-02T14:20:34.475Z,-11234.88
2023-03-02T14:23:41.466Z,-11231.22
2023-03-02T14:26:50.161Z,-11225.72
2023-03-02T14:29:56.529Z,-11229.94
2023-03-02T14:33:02.926Z,-11229.94
2023-03-02T14:36:17.272Z,-11226.72
2023-03-02T14:39:29.452Z,-11214.63
2023-03-02T14:42:35.867Z,-11219.53
2023-03-02T14:45:42.509Z,-11212.50
2023-03-02T14:48:48.994Z,-11217.84
2023-03-02T14:52:04.259Z,-11217.44
2023-03-02T14:55:18.381Z,-11213.78
2023-03-02T14:58:30.879Z,-11215.88
2023-03-02T15:01:37.548Z,-11211.38
2023-03-02T15:04:44.071Z,-11215.75
2023-03-02T15:07:53.780Z,-11217.56
2023-03-02T15:11:00.384Z,-11216.72
2023-03-02T15:14:07.149Z,-11215.03
2023-03-02T15:17:13.598Z,-11214.34
2023-03-02T15:20:19.977Z,-11214.47
2023-03-02T15:23:27.846Z,-11213.78
2023-03-02T15:26:34.324Z,-11215.88
2023-03-02T15:29:43.923Z,-11214.47
2023-03-02T15:32:50.428Z,-11212.78
2023-03-02T15:35:56.904Z,-11215.59
2023-03-02T15:39:05.438Z,-11214.19
2023-03-02T15:42:13.776Z,-11211.66
2023-03-02T15:45:20.398Z,-11211.66
2023-03-02T15:48:26.467Z,-11205.91
2023-03-02T15:51:32.797Z,-11206.03
2023-03-02T15:54:40.528Z,-11210.53
2023-03-02T15:57:46.990Z,-11208.44
2023-03-02T16:00:54.377Z,-11202.09
2023-03-02T16:04:01.160Z,-11208.84
2023-03-02T16:07:07.633Z,-11202.81
2023-03-02T16:10:16.577Z,-11195.34
2023-03-02T16:13:22.689Z,-11195.06
2023-03-02T16:16:28.872Z,-11191.84
2023-03-02T16:19:35.139Z,-11192.53
2023-03-02T16:22:41.256Z,-11188.59
2023-03-02T16:25:49.836Z,-11188.03
2023-03-02T16:28:55.835Z,-11189.44
2023-03-02T16:32:02.217Z,-11185.50
2023-03-02T16:35:10.551Z,-11184.38
2023-03-02T16:38:16.925Z,-11189.72
2023-03-02T16:41:25.931Z,-11196.63
2023-03-02T16:44:32.653Z,-11191.00
2023-03-02T16:47:39.100Z,-11188.59
2023-03-02T16:50:46.012Z,-11187.75
2023-03-02T16:53:54.029Z,-11179.31
2023-03-02T16:57:01.799Z,-11177.34
2023-03-02T17:00:10.000Z,-11174.53
2023-03-02T17:03:16.821Z,-11174.53
2023-03-02T17:06:24.415Z,-11172.72
2023-03-02T17:09:31.313Z,-11174.25
2023-03-02T17:12:39.164Z,-11170.34
2023-03-02T17:15:45.740Z,-11175.94
2023-03-02T17:18:52.268Z,-11175.66
2023-03-02T17:21:59.395Z,-11173.56
2023-03-02T17:25:06.830Z,-11167.53
2023-03-02T17:28:15.064Z,-11169.34
2023-03-02T17:31:21.609Z,-11170.63
2023-03-02T17:34:31.398Z,-11174.25
2023-03-02T17:37:38.321Z,-11169.78
2023-03-02T17:40:44.970Z,-11162.75
2023-03-02T17:44:09.637Z,-11171.75
2023-03-02T17:47:17.209Z,-11168.94
2023-03-02T17:50:24.175Z,-11173.56
2023-03-02T17:53:30.504Z,-11167.53
2023-03-02T17:56:37.026Z,-11167.25
2023-03-02T17:59:46.064Z,-11170.91
2023-03-02T18:02:53.136Z,-11172.31
2023-03-02T18:05:59.679Z,-11170.19
2023-03-02T18:09:05.871Z,-11172.59
2023-03-02T18:12:12.636Z,-11179.59
2023-03-02T18:15:20.666Z,-11169.50
2023-03-02T18:18:27.186Z,-11169.22
2023-03-02T18:21:34.616Z,-11166.53
2023-03-02T18:24:41.094Z,-11164.84
2023-03-02T18:27:47.428Z,-11147.56
2023-03-02T18:30:55.209Z,-11162.75
2023-03-02T18:34:02.386Z,-11150.78
2023-03-02T18:37:09.133Z,-11155.44
2023-03-02T18:40:16.506Z,-11160.50
2023-03-02T18:43:22.596Z,-11158.25
2023-03-02T18:46:32.644Z,-11158.09
2023-03-02T18:49:42.764Z,-11150.50
2023-03-02T18:52:50.431Z,-11157.81
2023-03-02T18:55:57.277Z,-11150.66
2023-03-02T18:59:05.848Z,-11141.94
2023-03-02T19:02:15.292Z,-11152.34
2023-03-02T19:05:22.212Z,-11153.03
2023-03-02T19:08:29.792Z,-11149.94
2023-03-02T19:11:36.340Z,-11149.94
2023-03-02T19:14:42.828Z,-11138.56
2023-03-02T19:17:51.893Z,-11146.56
2023-03-02T19:20:58.751Z,-11149.81
2023-03-02T19:24:05.580Z,-11144.47
2023-03-02T19:27:12.936Z,-11136.59
2023-03-02T19:30:22.597Z,-11143.50
2023-03-02T19:33:30.207Z,-11136.19
2023-03-02T19:36:37.354Z,-11139.41
2023-03-02T19:39:44.234Z,-11142.22
2023-03-02T19:42:51.770Z,-11141.38
2023-03-02T19:45:58.086Z,-11128.31
2023-03-02T19:49:05.800Z,-11130.41
2023-03-02T19:52:12.243Z,-11138.44
2023-03-02T19:55:18.362Z,-11136.59
2023-03-02T19:58:24.893Z,-11135.47
2023-03-02T20:01:31.576Z,-11138.84
2023-03-02T20:04:39.430Z,-11135.75
2023-03-02T20:07:45.566Z,-11133.66
2023-03-02T20:10:51.962Z,-11124.09
2023-03-02T20:14:02.340Z,-11124.53
2023-03-02T20:17:08.598Z,-11133.94
2023-03-02T20:20:16.292Z,-11129.16
2023-03-02T20:23:22.560Z,-11130.41
2023-03-02T20:26:29.442Z,-11132.94
2023-03-02T20:29:36.128Z,-11136.59
2023-03-02T20:32:43.242Z,-11124.53
2023-03-02T20:35:51.633Z,-11130.84
2023-03-02T20:39:00.378Z,-11130.56
2023-03-02T20:42:07.890Z,-11133.22
2023-03-02T20:45:14.883Z,-11127.75
2023-03-02T20:48:39.305Z,-11121.16
2023-03-02T20:51:53.013Z,-11128.19
2023-03-02T20:54:59.404Z,-11124.38
2023-03-02T20:58:06.400Z,-11130.13
2023-03-02T21:01:14.007Z,-11129.88
2023-03-02T21:04:20.461Z,-11132.09
2023-03-02T21:07:28.193Z,-11123.97
2023-03-02T21:10:37.050Z,-11109.63
2023-03-02T21:13:45.976Z,-11113.00
2023-03-02T21:16:51.903Z,-11114.69
2023-03-02T21:19:58.812Z,-11116.25
2023-03-02T21:23:06.709Z,-11120.31
2023-03-02T21:26:13.883Z,-11128.03
2023-03-02T21:29:21.995Z,-11116.81
2023-03-02T21:32:28.231Z,-11118.75
2023-03-02T21:35:34.376Z,-11119.59
2023-03-02T21:38:42.174Z,-11120.59
2023-03-02T21:41:48.353Z,-11120.88
2023-03-02T21:44:55.238Z,-11117.50
2023-03-02T21:48:01.304Z,-11121.28
2023-03-02T21:51:08.387Z,-11109.63
2023-03-02T21:54:16.096Z,-11117.78
2023-03-02T21:57:22.454Z,-11109.78
2023-03-02T22:00:30.919Z,-11115.41
2023-03-02T22:03:37.103Z,-11116.25
2023-03-02T22:06:43.102Z,-11119.19
2023-03-02T22:09:50.979Z,-11115.41
2023-03-02T22:13:05.838Z,-11119.19
2023-03-02T22:16:14.996Z,-11115.25
2023-03-02T22:19:27.776Z,-11108.66
2023-03-02T22:22:33.705Z,-11105.72
2023-03-02T22:25:41.289Z,-11113.56
2023-03-02T22:28:47.250Z,-11120.44
2023-03-02T22:31:54.886Z,-11102.62
2023-03-02T22:35:03.083Z,-11107.69
2023-03-02T22:38:19.128Z,-11105.56
2023-03-02T22:41:26.391Z,-11111.03
2023-03-02T22:44:33.077Z,-11116.66
2023-03-02T22:47:38.986Z,-11116.94
2023-03-02T22:50:46.502Z,-11110.75
2023-03-02T22:53:54.982Z,-11109.91
2023-03-02T22:57:03.078Z,-11104.88
2023-03-02T23:00:35.709Z,-11108.66
2023-03-02T23:03:45.609Z,-11109.91
2023-03-02T23:06:53.423Z,-11118.63
2023-03-02T23:10:00.349Z,-11118.47
2023-03-02T23:13:09.961Z,-11122.84
2023-03-02T23:16:19.935Z,-11116.25
2023-03-02T23:19:27.587Z,-11114.84
2023-03-02T23:22:33.959Z,-11117.22
2023-03-02T23:25:40.082Z,-11098.97
2023-03-02T23:28:49.086Z,-11096.84
2023-03-02T23:31:55.432Z,-11103.75
2023-03-02T23:35:01.859Z,-11101.22
2023-03-02T23:38:08.227Z,-11109.63
2023-03-02T23:41:14.320Z,-11109.06
2023-03-02T23:44:21.937Z,-11109.06
2023-03-02T23:47:28.390Z,-11115.81
2023-03-02T23:50:34.425Z,-11110.34
2023-03-02T23:53:40.769Z,-11114.00
2023-03-02T23:56:47.310Z,-11111.31
2023-03-02T23:59:55.432Z,-11110.19
